createdAt,value
2022-08-01T00:02:14.701Z,100.00
2022-08-01T00:07:16.536Z,100.00
2022-08-01T00:12:18.323Z,100.00
2022-08-01T00:17:24.115Z,100.00
2022-08-01T00:22:25.849Z,100.00
2022-08-01T00:27:27.719Z,100.00
2022-08-01T00:32:32.244Z,100.00
2022-08-01T00:37:33.781Z,100.00
2022-08-01T00:42:38.111Z,100.00
2022-08-01T00:47:43.183Z,100.00
2022-08-01T00:52:50.010Z,100.00
2022-08-01T00:58:02.285Z,100.00
2022-08-01T01:03:06.995Z,100.00
2022-08-01T01:08:16.644Z,100.00
2022-08-01T01:13:24.912Z,100.00
2022-08-01T01:18:29.348Z,100.00
2022-08-01T01:24:04.782Z,100.00
2022-08-01T01:29:18.159Z,100.00
2022-08-01T01:34:22.120Z,100.00
2022-08-01T01:39:26.899Z,100.00
2022-08-01T01:44:30.346Z,100.00
2022-08-01T01:49:33.928Z,100.00
2022-08-01T01:54:43.718Z,100.00
2022-08-01T01:59:46.817Z,100.00
2022-08-01T02:04:49.557Z,100.00
2022-08-01T02:09:54.167Z,100.00
2022-08-01T02:15:01.172Z,100.00
2022-08-01T02:20:02.953Z,100.00
2022-08-01T02:25:19.596Z,100.00
2022-08-01T02:30:22.332Z,100.00
2022-08-01T02:35:28.511Z,100.00
2022-08-01T02:40:33.849Z,100.00
2022-08-01T02:45:38.447Z,100.00
2022-08-01T02:50:44.187Z,100.00
2022-08-01T02:55:48.372Z,100.00
2022-08-01T03:00:50.179Z,100.00
2022-08-01T03:05:51.869Z,100.00
2022-08-01T03:10:55.237Z,100.00
2022-08-01T03:15:58.337Z,100.00
2022-08-01T03:21:01.092Z,100.00
2022-08-01T03:26:06.019Z,100.00
2022-08-01T03:31:07.647Z,100.00
2022-08-01T03:36:12.560Z,100.00
2022-08-01T03:41:21.985Z,100.00
2022-08-01T03:46:48.865Z,100.00
2022-08-01T03:51:51.773Z,100.00
2022-08-01T03:56:53.718Z,100.00
2022-08-01T04:01:56.783Z,100.00
2022-08-01T04:06:58.455Z,100.00
2022-08-01T04:12:01.324Z,100.00
2022-08-01T04:17:13.735Z,100.00
2022-08-01T04:22:16.703Z,100.00
2022-08-01T04:27:49.928Z,100.00
2022-08-01T04:32:47.931Z,100.00
2022-08-01T04:37:52.068Z,100.00
2022-08-01T04:42:54.798Z,100.00
2022-08-01T04:47:57.981Z,100.00
2022-08-01T04:52:59.549Z,100.00
2022-08-01T04:58:01.307Z,100.00
2022-08-01T05:03:03.247Z,100.00
2022-08-01T05:08:07.235Z,100.00
2022-08-01T05:13:09.784Z,100.00
2022-08-01T05:18:11.393Z,100.00
2022-08-01T05:23:20.594Z,100.00
2022-08-01T05:28:34.926Z,100.00
2022-08-01T05:33:36.818Z,100.00
2022-08-01T05:38:38.447Z,100.00
2022-08-01T05:43:39.975Z,100.00
2022-08-01T05:48:41.633Z,100.00
2022-08-01T05:53:45.243Z,100.00
2022-08-01T05:58:46.811Z,100.00
2022-08-01T06:03:48.369Z,100.00
2022-08-01T06:08:50.237Z,100.00
2022-08-01T06:13:54.720Z,100.00
2022-08-01T06:18:56.861Z,100.00
2022-08-01T06:23:59.799Z,100.00
2022-08-01T06:29:03.870Z,100.00
2022-08-01T06:34:05.431Z,100.00
2022-08-01T06:39:07.109Z,100.00
2022-08-01T06:44:08.852Z,100.00
2022-08-01T06:49:13.322Z,100.00
2022-08-01T06:54:17.063Z,100.00
2022-08-01T06:59:18.685Z,100.00
2022-08-01T07:04:20.204Z,100.00
2022-08-01T07:09:21.796Z,100.00
2022-08-01T07:14:24.075Z,100.00
2022-08-01T07:19:26.777Z,100.00
2022-08-01T07:24:30.101Z,100.00
2022-08-01T07:29:31.712Z,100.00
2022-08-01T07:34:33.447Z,100.00
2022-08-01T07:39:35.050Z,100.00
2022-08-01T07:44:37.695Z,100.00
2022-08-01T07:49:41.202Z,100.00
2022-08-01T07:54:43.173Z,100.00
2022-08-01T07:59:45.838Z,100.00
2022-08-01T08:04:49.240Z,100.00
2022-08-01T08:09:51.465Z,100.00
2022-08-01T08:14:53.157Z,100.00
2022-08-01T08:19:54.820Z,100.00
2022-08-01T08:24:56.476Z,100.00
2022-08-01T08:30:02.785Z,100.00
2022-08-01T08:35:06.063Z,100.00
2022-08-01T08:40:09.348Z,100.00
2022-08-01T08:45:12.158Z,100.00
2022-08-01T08:50:14.166Z,100.00
2022-08-01T08:55:17.567Z,100.00
2022-08-01T09:00:21.690Z,100.00
2022-08-01T09:05:26.686Z,100.00
2022-08-01T09:10:41.115Z,100.00
2022-08-01T09:15:49.220Z,100.00
2022-08-01T09:20:50.884Z,100.00
2022-08-01T09:25:56.925Z,100.00
2022-08-01T09:31:07.651Z,100.00
2022-08-01T09:36:13.244Z,100.00
2022-08-01T09:41:16.707Z,100.00
2022-08-01T09:46:21.245Z,100.00
2022-08-01T09:51:59.506Z,100.00
2022-08-01T09:56:54.035Z,100.00
2022-08-01T10:01:56.074Z,100.00
2022-08-01T10:07:06.812Z,100.00
2022-08-01T10:12:18.152Z,100.00
2022-08-01T10:17:22.628Z,100.00
2022-08-01T10:22:25.197Z,100.00
2022-08-01T10:27:37.866Z,100.00
2022-08-01T10:32:40.779Z,100.00
2022-08-01T10:37:51.962Z,100.00
2022-08-01T10:42:55.146Z,100.00
2022-08-01T10:48:21.259Z,100.00
2022-08-01T10:53:31.617Z,100.00
2022-08-01T10:58:46.871Z,100.00
2022-08-01T11:03:59.037Z,100.00
2022-08-01T11:09:06.209Z,100.00
2022-08-01T11:14:10.464Z,100.00
2022-08-01T11:19:12.384Z,100.00
2022-08-01T11:24:13.918Z,100.00
2022-08-01T11:29:21.038Z,100.00
2022-08-01T11:34:53.147Z,100.00
2022-08-01T11:40:18.455Z,100.00
2022-08-01T11:45:20.771Z,100.00
2022-08-01T11:50:37.974Z,100.00
2022-08-01T11:55:51.440Z,100.00
2022-08-01T12:00:58.779Z,100.00
2022-08-01T12:06:00.600Z,100.00
2022-08-01T12:11:04.269Z,100.00
2022-08-01T12:16:10.064Z,100.00
2022-08-01T12:21:11.776Z,100.00
2022-08-01T12:26:28.156Z,100.00
2022-08-01T12:31:37.351Z,100.00
2022-08-01T12:36:39.499Z,100.00
2022-08-01T12:41:44.953Z,100.00
2022-08-01T12:46:46.719Z,100.00
2022-08-01T12:51:57.501Z,100.00
2022-08-01T12:56:59.277Z,100.00
2022-08-01T13:02:09.604Z,100.00
2022-08-01T13:07:11.238Z,100.00
2022-08-01T13:12:13.137Z,100.00
2022-08-01T13:17:34.114Z,100.00
2022-08-01T13:22:37.688Z,100.00
2022-08-01T13:27:39.680Z,100.00
2022-08-01T13:33:00.558Z,100.00
2022-08-01T13:38:02.077Z,100.00
2022-08-01T13:43:03.810Z,100.00
2022-08-01T13:48:13.160Z,100.00
2022-08-01T13:53:20.561Z,100.00
2022-08-01T13:58:22.408Z,100.00
2022-08-01T14:03:33.217Z,100.00
2022-08-01T14:08:35.729Z,100.00
2022-08-01T14:13:46.661Z,100.00
2022-08-01T14:18:48.691Z,100.00
2022-08-01T14:23:50.636Z,100.00
2022-08-01T14:28:52.270Z,100.00
2022-08-01T14:33:56.106Z,95.55
2022-08-01T14:39:00.348Z,100.00
2022-08-01T14:44:05.118Z,95.69
2022-08-01T14:49:06.814Z,89.31
2022-08-01T14:54:09.395Z,97.59
2022-08-01T14:59:21.288Z,88.55
2022-08-01T15:04:25.676Z,96.36
2022-08-01T15:09:27.245Z,97.70
2022-08-01T15:14:47.537Z,95.01
2022-08-01T15:19:51.518Z,100.00
2022-08-01T15:24:57.639Z,98.49
2022-08-01T15:29:59.356Z,99.19
2022-08-01T15:35:01.335Z,100.00
2022-08-01T15:40:03.390Z,100.00
2022-08-01T15:45:05.410Z,98.02
2022-08-01T15:50:08.028Z,100.00
2022-08-01T15:55:09.760Z,96.55
2022-08-01T16:00:11.696Z,91.22
2022-08-01T16:05:17.197Z,91.01
2022-08-01T16:10:22.118Z,88.59
2022-08-01T16:15:36.251Z,85.27
2022-08-01T16:20:44.764Z,92.55
2022-08-01T16:25:47.407Z,86.90
2022-08-01T16:30:55.429Z,100.00
2022-08-01T16:36:12.586Z,99.91
2022-08-01T16:41:20.176Z,95.07
2022-08-01T16:46:23.854Z,91.78
2022-08-01T16:51:25.484Z,92.13
2022-08-01T16:56:27.092Z,88.37
2022-08-01T17:01:58.174Z,86.65
2022-08-01T17:06:52.453Z,91.17
2022-08-01T17:11:56.016Z,91.04
2022-08-01T17:16:59.527Z,96.49
2022-08-01T17:22:01.778Z,89.63
2022-08-01T17:27:12.476Z,89.28
2022-08-01T17:32:15.821Z,99.79
2022-08-01T17:37:17.446Z,89.62
2022-08-01T17:42:19.098Z,91.55
2022-08-01T17:47:48.145Z,85.90
2022-08-01T17:52:46.294Z,83.63
2022-08-01T17:57:47.877Z,80.68
2022-08-01T18:02:50.438Z,80.77
2022-08-01T18:08:01.595Z,80.14
2022-08-01T18:13:04.169Z,80.72
2022-08-01T18:18:07.553Z,80.68
2022-08-01T18:23:11.050Z,93.41
2022-08-01T18:28:16.329Z,84.14
2022-08-01T18:33:33.382Z,94.37
2022-08-01T18:38:35.302Z,93.52
2022-08-01T18:43:42.182Z,97.39
2022-08-01T18:48:43.811Z,100.00
2022-08-01T18:53:47.010Z,100.00
2022-08-01T18:58:54.606Z,100.00
2022-08-01T19:03:57.217Z,100.00
2022-08-01T19:09:02.409Z,100.00
2022-08-01T19:14:05.630Z,100.00
2022-08-01T19:19:09.685Z,100.00
2022-08-01T19:24:17.530Z,100.00
2022-08-01T19:29:35.866Z,100.00
2022-08-01T19:35:14.595Z,100.00
2022-08-01T19:40:27.098Z,100.00
2022-08-01T19:45:29.807Z,100.00
2022-08-01T19:50:32.759Z,100.00
2022-08-01T19:55:39.667Z,100.00
2022-08-01T20:00:42.803Z,100.00
2022-08-01T20:05:44.683Z,100.00
2022-08-01T20:10:48.607Z,100.00
2022-08-01T20:15:51.939Z,100.00
2022-08-01T20:20:54.788Z,100.00
2022-08-01T20:26:00.900Z,100.00
2022-08-01T20:31:05.704Z,100.00
2022-08-01T20:36:12.125Z,100.00
2022-08-01T20:41:27.926Z,100.00
2022-08-01T20:46:29.776Z,100.00
2022-08-01T20:51:32.061Z,100.00
2022-08-01T20:56:39.616Z,100.00
2022-08-01T21:02:02.203Z,100.00
2022-08-01T21:07:23.801Z,100.00
2022-08-01T21:12:55.225Z,100.00
2022-08-01T21:18:07.733Z,100.00
2022-08-01T21:23:30.674Z,100.00
2022-08-01T21:28:34.740Z,100.00
2022-08-01T21:33:39.513Z,100.00
2022-08-01T21:39:02.690Z,100.00
2022-08-01T21:44:04.560Z,100.00
2022-08-01T21:49:06.323Z,100.00
2022-08-01T21:54:51.983Z,100.00
2022-08-01T22:00:24.958Z,100.00
2022-08-01T22:05:50.651Z,100.00
2022-08-01T22:11:05.688Z,100.00
2022-08-01T22:16:07.616Z,100.00
2022-08-01T22:21:09.890Z,100.00
2022-08-01T22:26:12.245Z,100.00
2022-08-01T22:31:16.323Z,100.00
2022-08-01T22:36:18.996Z,100.00
2022-08-01T22:41:29.971Z,100.00
2022-08-01T22:47:02.361Z,100.00
2022-08-01T22:52:16.325Z,100.00
2022-08-01T22:57:30.436Z,100.00
2022-08-01T23:02:39.941Z,100.00
2022-08-01T23:07:50.873Z,100.00
2022-08-01T23:12:55.128Z,100.00
2022-08-01T23:17:58.037Z,100.00
2022-08-01T23:23:01.689Z,100.00
2022-08-01T23:28:06.197Z,100.00
2022-08-01T23:33:08.337Z,100.00
2022-08-01T23:38:10.913Z,100.00
2022-08-01T23:43:17.711Z,100.00
2022-08-01T23:48:19.774Z,100.00
2022-08-01T23:53:21.336Z,100.00
2022-08-01T23:58:26.475Z,100.00
